createdAt,value
2023-01-23T00:00:55.433Z,7.70
2023-01-23T00:03:22.403Z,7.40
2023-01-23T00:06:03.239Z,7.73
2023-01-23T00:08:30.268Z,8.07
2023-01-23T00:10:57.340Z,7.03
2023-01-23T00:13:26.800Z,7.93
2023-01-23T00:15:53.608Z,7.90
2023-01-23T00:18:20.305Z,7.03
2023-01-23T00:20:47.052Z,7.77
2023-01-23T00:23:14.534Z,7.87
2023-01-23T00:25:41.224Z,7.67
2023-01-23T00:28:07.815Z,8.37
2023-01-23T00:30:34.684Z,7.83
2023-01-23T00:33:01.487Z,8.43
2023-01-23T00:35:28.299Z,8.40
2023-01-23T00:37:55.243Z,7.67
2023-01-23T00:40:22.211Z,8.30
2023-01-23T00:42:48.961Z,8.47
2023-01-23T00:45:15.661Z,8.87
2023-01-23T00:47:42.316Z,8.13
2023-01-23T00:50:09.747Z,7.60
2023-01-23T00:52:36.392Z,8.43
2023-01-23T00:55:03.788Z,7.50
2023-01-23T00:57:30.485Z,7.83
2023-01-23T00:59:57.128Z,7.93
2023-01-23T01:02:23.795Z,8.03
2023-01-23T01:04:50.486Z,7.80
2023-01-23T01:07:17.179Z,8.83
2023-01-23T01:09:43.824Z,8.70
2023-01-23T01:12:10.456Z,8.17
2023-01-23T01:14:37.098Z,9.40
2023-01-23T01:17:03.783Z,7.43
2023-01-23T01:19:30.448Z,8.73
2023-01-23T01:21:57.082Z,9.43
2023-01-23T01:24:23.775Z,9.40
2023-01-23T01:26:50.437Z,8.50
2023-01-23T01:29:17.033Z,8.67
2023-01-23T01:31:43.745Z,9.10
2023-01-23T01:34:10.397Z,9.07
2023-01-23T01:36:37.036Z,8.53
2023-01-23T01:39:03.935Z,8.93
2023-01-23T01:41:31.042Z,8.57
2023-01-23T01:43:59.977Z,8.87
2023-01-23T01:46:28.836Z,8.60
2023-01-23T01:49:09.728Z,8.50
2023-01-23T01:51:45.259Z,8.57
2023-01-23T01:54:30.004Z,8.90
2023-01-23T01:57:24.279Z,8.70
2023-01-23T02:00:20.513Z,7.83
2023-01-23T02:02:58.830Z,8.23
2023-01-23T02:05:31.201Z,8.67
2023-01-23T02:08:22.535Z,8.70
2023-01-23T02:10:49.736Z,7.93
2023-01-23T02:13:22.364Z,9.00
2023-01-23T02:15:49.662Z,8.17
2023-01-23T02:18:16.565Z,8.73
2023-01-23T02:20:43.310Z,8.80
2023-01-23T02:23:36.420Z,9.10
2023-01-23T02:26:09.507Z,8.53
2023-01-23T02:28:41.306Z,8.40
2023-01-23T02:31:08.433Z,9.37
2023-01-23T02:33:35.093Z,8.70
2023-01-23T02:36:05.320Z,8.63
2023-01-23T02:39:02.529Z,9.13
2023-01-23T02:41:50.039Z,8.93
2023-01-23T02:44:27.953Z,8.60
2023-01-23T02:46:55.997Z,8.60
2023-01-23T02:49:22.699Z,9.40
2023-01-23T02:51:50.892Z,9.87
2023-01-23T02:54:18.617Z,9.53
2023-01-23T02:56:45.405Z,9.13
2023-01-23T02:59:31.081Z,9.83
2023-01-23T03:01:57.918Z,9.17
2023-01-23T03:04:25.071Z,9.40
2023-01-23T03:06:52.164Z,9.27
2023-01-23T03:09:19.509Z,10.43
2023-01-23T03:11:47.152Z,9.53
2023-01-23T03:14:16.504Z,10.13
2023-01-23T03:16:45.087Z,9.43
2023-01-23T03:19:11.821Z,10.50
2023-01-23T03:21:40.416Z,9.97
2023-01-23T03:24:12.999Z,10.03
2023-01-23T03:26:44.141Z,10.60
2023-01-23T03:29:37.315Z,9.63
2023-01-23T03:32:04.699Z,10.30
2023-01-23T03:34:32.313Z,10.77
2023-01-23T03:37:00.378Z,10.30
2023-01-23T03:39:46.168Z,10.40
2023-01-23T03:42:12.790Z,10.27
2023-01-23T03:44:39.706Z,11.17
2023-01-23T03:47:06.648Z,10.07
2023-01-23T03:49:33.489Z,10.60
2023-01-23T03:52:00.365Z,10.20
2023-01-23T03:54:27.008Z,10.47
2023-01-23T03:56:54.285Z,10.97
2023-01-23T03:59:21.204Z,10.50
2023-01-23T04:01:48.182Z,10.27
2023-01-23T04:04:14.960Z,10.97
2023-01-23T04:06:41.604Z,11.30
2023-01-23T04:09:08.269Z,10.53
2023-01-23T04:11:34.942Z,10.87
2023-01-23T04:14:01.564Z,11.20
2023-01-23T04:16:28.723Z,10.80
2023-01-23T04:18:55.575Z,10.77
2023-01-23T04:21:22.477Z,10.77
2023-01-23T04:23:49.084Z,9.70
2023-01-23T04:26:15.734Z,10.63
2023-01-23T04:28:42.387Z,9.70
2023-01-23T04:31:09.479Z,9.33
2023-01-23T04:33:36.592Z,9.20
2023-01-23T04:36:05.923Z,9.20
2023-01-23T04:38:33.488Z,8.80
2023-01-23T04:41:00.328Z,9.80
2023-01-23T04:43:27.069Z,9.83
2023-01-23T04:45:55.013Z,10.13
2023-01-23T04:48:22.390Z,9.43
2023-01-23T04:50:50.384Z,9.73
2023-01-23T04:53:17.821Z,9.90
2023-01-23T04:55:47.271Z,9.73
2023-01-23T04:58:13.911Z,9.23
2023-01-23T05:00:40.600Z,9.37
2023-01-23T05:03:07.249Z,8.87
2023-01-23T05:05:34.725Z,9.33
2023-01-23T05:08:01.469Z,8.87
2023-01-23T05:10:28.171Z,9.03
2023-01-23T05:12:54.844Z,8.90
2023-01-23T05:15:21.477Z,9.43
2023-01-23T05:17:48.898Z,8.77
2023-01-23T05:20:15.702Z,9.73
2023-01-23T05:22:52.138Z,9.80
2023-01-23T05:25:26.318Z,9.77
2023-01-23T05:27:53.348Z,9.60
2023-01-23T05:30:22.556Z,9.57
2023-01-23T05:32:49.666Z,9.10
2023-01-23T05:35:17.295Z,9.23
2023-01-23T05:37:43.917Z,9.57
2023-01-23T05:40:13.260Z,10.23
2023-01-23T05:42:39.999Z,9.50
2023-01-23T05:45:07.067Z,9.83
2023-01-23T05:47:33.978Z,9.60
2023-01-23T05:50:01.015Z,9.10
2023-01-23T05:52:27.862Z,9.33
2023-01-23T05:54:54.483Z,9.47
2023-01-23T05:57:21.665Z,9.50
2023-01-23T05:59:48.321Z,9.40
2023-01-23T06:02:15.121Z,9.53
2023-01-23T06:04:41.935Z,9.87
2023-01-23T06:07:13.932Z,9.83
2023-01-23T06:09:40.732Z,8.40
2023-01-23T06:12:07.987Z,9.10
2023-01-23T06:14:34.795Z,9.47
2023-01-23T06:17:01.597Z,8.67
2023-01-23T06:19:28.276Z,9.50
2023-01-23T06:21:55.024Z,8.97
2023-01-23T06:24:21.644Z,8.90
2023-01-23T06:26:48.302Z,8.80
2023-01-23T06:29:14.982Z,9.17
2023-01-23T06:31:41.680Z,9.63
2023-01-23T06:34:08.715Z,9.57
2023-01-23T06:36:36.033Z,8.83
2023-01-23T06:39:02.981Z,8.80
2023-01-23T06:41:29.711Z,9.23
2023-01-23T06:43:56.468Z,8.70
2023-01-23T06:46:23.549Z,8.80
2023-01-23T06:48:50.236Z,8.47
2023-01-23T06:51:16.986Z,9.03
2023-01-23T06:53:43.700Z,8.30
2023-01-23T06:56:12.136Z,9.53
2023-01-23T06:58:38.835Z,9.07
2023-01-23T07:01:15.792Z,8.93
2023-01-23T07:03:44.788Z,9.80
2023-01-23T07:06:13.168Z,9.10
2023-01-23T07:08:40.356Z,9.17
2023-01-23T07:11:07.469Z,8.70
2023-01-23T07:13:34.433Z,9.10
2023-01-23T07:16:01.851Z,9.87
2023-01-23T07:18:30.194Z,8.83
2023-01-23T07:20:56.875Z,9.20
2023-01-23T07:23:23.665Z,9.17
2023-01-23T07:25:50.376Z,9.43
2023-01-23T07:28:17.071Z,9.43
2023-01-23T07:30:43.768Z,8.77
2023-01-23T07:33:11.841Z,9.80
2023-01-23T07:35:40.075Z,9.67
2023-01-23T07:38:06.727Z,10.20
2023-01-23T07:40:33.404Z,9.73
2023-01-23T07:43:00.059Z,9.83
2023-01-23T07:45:26.723Z,9.87
2023-01-23T07:47:53.413Z,9.37
2023-01-23T07:50:20.339Z,9.90
2023-01-23T07:52:47.297Z,9.60
2023-01-23T07:55:14.352Z,9.63
2023-01-23T07:57:41.025Z,9.27
2023-01-23T08:00:08.547Z,9.53
2023-01-23T08:02:35.196Z,9.60
2023-01-23T08:05:01.864Z,9.47
2023-01-23T08:07:28.664Z,9.90
2023-01-23T08:09:55.318Z,10.17
2023-01-23T08:12:21.947Z,9.73
2023-01-23T08:14:48.733Z,11.27
2023-01-23T08:17:15.351Z,10.13
2023-01-23T08:19:42.012Z,10.37
2023-01-23T08:22:08.622Z,11.10
2023-01-23T08:24:35.256Z,10.80
2023-01-23T08:27:01.911Z,10.77
2023-01-23T08:29:28.847Z,10.80
2023-01-23T08:31:55.597Z,11.50
2023-01-23T08:34:24.022Z,10.50
2023-01-23T08:36:50.840Z,9.97
2023-01-23T08:39:18.324Z,9.47
2023-01-23T08:41:44.919Z,10.93
2023-01-23T08:44:12.064Z,10.13
2023-01-23T08:46:38.729Z,10.90
2023-01-23T08:49:05.465Z,10.30
2023-01-23T08:51:32.137Z,10.97
2023-01-23T08:53:58.782Z,11.10
2023-01-23T08:56:25.584Z,10.57
2023-01-23T08:58:52.851Z,9.87
2023-01-23T09:01:26.792Z,10.40
2023-01-23T09:03:53.423Z,11.13
2023-01-23T09:06:21.872Z,10.00
2023-01-23T09:08:49.115Z,9.37
2023-01-23T09:11:16.743Z,10.13
2023-01-23T09:13:43.604Z,10.23
2023-01-23T09:16:10.521Z,10.83
2023-01-23T09:18:37.570Z,9.80
2023-01-23T09:21:17.925Z,9.87
2023-01-23T09:23:44.547Z,9.73
2023-01-23T09:26:14.356Z,10.40
2023-01-23T09:28:42.682Z,9.20
2023-01-23T09:31:12.227Z,9.00
2023-01-23T09:33:39.315Z,9.13
2023-01-23T09:36:09.090Z,8.63
2023-01-23T09:38:36.071Z,10.03
2023-01-23T09:41:26.792Z,9.50
2023-01-23T09:44:20.336Z,8.83
2023-01-23T09:47:04.774Z,9.33
2023-01-23T09:49:41.139Z,9.37
2023-01-23T09:52:18.911Z,8.53
2023-01-23T09:54:53.504Z,8.37
2023-01-23T09:57:34.859Z,8.40
2023-01-23T10:00:11.545Z,7.80
2023-01-23T10:02:38.423Z,8.47
2023-01-23T10:05:06.829Z,8.17
2023-01-23T10:07:48.125Z,8.47
2023-01-23T10:10:36.891Z,8.20
2023-01-23T10:13:16.997Z,8.67
2023-01-23T10:16:14.208Z,8.87
2023-01-23T10:18:58.787Z,8.10
2023-01-23T10:21:29.806Z,7.63
2023-01-23T10:24:23.727Z,8.50
2023-01-23T10:26:50.904Z,8.20
2023-01-23T10:29:36.692Z,8.53
2023-01-23T10:32:06.179Z,8.00
2023-01-23T10:34:37.745Z,7.87
2023-01-23T10:37:19.200Z,8.30
2023-01-23T10:40:02.523Z,7.90
2023-01-23T10:42:29.351Z,8.60
2023-01-23T10:44:56.022Z,7.33
2023-01-23T10:47:33.164Z,8.20
2023-01-23T10:50:00.984Z,8.27
2023-01-23T10:52:43.965Z,8.30
2023-01-23T10:55:20.294Z,7.70
2023-01-23T10:57:49.403Z,7.27
2023-01-23T11:00:19.286Z,7.63
2023-01-23T11:02:46.028Z,7.70
2023-01-23T11:05:40.388Z,8.13
2023-01-23T11:08:36.429Z,7.00
2023-01-23T11:11:20.435Z,7.53
2023-01-23T11:13:49.770Z,7.63
2023-01-23T11:16:26.393Z,7.83
2023-01-23T11:19:18.235Z,7.83
2023-01-23T11:22:00.771Z,8.77
2023-01-23T11:24:40.690Z,10.33
2023-01-23T11:27:18.876Z,9.23
2023-01-23T11:30:10.634Z,8.57
2023-01-23T11:32:58.718Z,9.47
2023-01-23T11:35:34.228Z,9.37
2023-01-23T11:38:03.785Z,9.17
2023-01-23T11:40:31.013Z,9.07
2023-01-23T11:42:57.682Z,10.27
2023-01-23T11:45:38.834Z,10.17
2023-01-23T11:48:36.070Z,9.73
2023-01-23T11:51:16.101Z,9.73
2023-01-23T11:54:17.051Z,9.80
2023-01-23T11:56:59.927Z,10.20
2023-01-23T12:00:07.289Z,10.17
2023-01-23T12:03:07.506Z,9.37
2023-01-23T12:05:45.348Z,8.27
2023-01-23T12:08:19.526Z,9.50
2023-01-23T12:11:11.994Z,9.30
2023-01-23T12:13:57.457Z,9.10
2023-01-23T12:16:40.491Z,9.30
2023-01-23T12:19:34.245Z,9.13
2023-01-23T12:22:37.542Z,10.17
2023-01-23T12:25:23.328Z,9.70
2023-01-23T12:28:01.518Z,9.30
2023-01-23T12:30:38.872Z,10.30
2023-01-23T12:33:17.318Z,10.30
2023-01-23T12:35:59.664Z,10.17
2023-01-23T12:38:36.775Z,9.17
2023-01-23T12:41:29.257Z,9.40
2023-01-23T12:43:55.888Z,9.20
2023-01-23T12:46:43.472Z,9.97
2023-01-23T12:49:34.328Z,10.20
2023-01-23T12:52:29.872Z,10.23
2023-01-23T12:55:06.736Z,9.73
2023-01-23T12:57:52.428Z,9.90
2023-01-23T13:00:38.719Z,10.43
2023-01-23T13:03:47.024Z,10.30
2023-01-23T13:06:31.923Z,10.23
2023-01-23T13:09:20.682Z,9.30
2023-01-23T13:12:21.447Z,9.50
2023-01-23T13:15:12.867Z,9.70
2023-01-23T13:17:41.836Z,10.03
2023-01-23T13:20:44.939Z,7.83
2023-01-23T13:23:32.252Z,9.63
2023-01-23T13:26:11.306Z,8.77
2023-01-23T13:28:46.035Z,8.90
2023-01-23T13:31:27.466Z,8.17
2023-01-23T13:34:06.646Z,8.40
2023-01-23T13:36:41.496Z,8.30
2023-01-23T13:39:17.178Z,8.70
2023-01-23T13:41:48.368Z,7.87
2023-01-23T13:44:24.821Z,7.93
2023-01-23T14:21:41.801Z,8.53
2023-01-23T14:24:31.046Z,7.50
2023-01-23T14:27:08.388Z,7.80
2023-01-23T14:29:35.811Z,7.47
2023-01-23T14:32:02.709Z,7.80
2023-01-23T14:34:29.489Z,8.40
2023-01-23T14:37:08.770Z,8.33
2023-01-23T14:39:36.258Z,7.90
2023-01-23T14:42:05.327Z,7.83
2023-01-23T14:44:43.439Z,8.17
2023-01-23T14:47:21.486Z,7.33
2023-01-23T14:49:51.159Z,7.90
2023-01-23T14:52:24.880Z,8.17
2023-01-23T14:54:54.332Z,7.70
2023-01-23T14:57:26.654Z,8.23
2023-01-23T14:59:56.678Z,7.80
2023-01-23T15:02:35.295Z,7.90
2023-01-23T15:05:12.469Z,7.73
2023-01-23T15:08:06.079Z,7.40
2023-01-23T15:10:48.842Z,7.87
2023-01-23T15:13:34.354Z,7.43
2023-01-23T15:16:09.374Z,7.63
2023-01-23T15:18:36.747Z,7.57
2023-01-23T15:21:06.488Z,7.00
2023-01-23T15:23:40.399Z,7.00
2023-01-23T15:26:30.830Z,7.63
2023-01-23T15:29:11.024Z,7.03
2023-01-23T15:31:40.774Z,8.63
2023-01-23T15:34:16.845Z,8.20
2023-01-23T15:37:09.833Z,8.13
2023-01-23T15:40:04.101Z,7.57
2023-01-23T15:42:34.681Z,8.40
2023-01-23T15:45:03.608Z,8.20
2023-01-23T15:47:31.453Z,8.00
2023-01-23T15:50:01.789Z,8.27
2023-01-23T15:52:48.120Z,8.00
2023-01-23T15:55:15.520Z,9.00
2023-01-23T15:57:43.175Z,8.70
2023-01-23T16:00:18.262Z,8.53
2023-01-23T16:02:55.696Z,7.87
2023-01-23T16:05:25.582Z,8.87
2023-01-23T16:07:53.839Z,9.07
2023-01-23T16:10:24.015Z,9.20
2023-01-23T16:12:52.975Z,9.03
2023-01-23T16:15:22.525Z,9.57
2023-01-23T16:17:49.962Z,8.80
2023-01-23T16:20:18.763Z,9.30
2023-01-23T16:22:48.916Z,9.10
2023-01-23T16:25:19.936Z,9.13
2023-01-23T16:27:46.562Z,9.33
2023-01-23T16:30:17.764Z,9.30
2023-01-23T16:32:44.692Z,9.77
2023-01-23T16:35:13.079Z,9.30
2023-01-23T16:37:45.249Z,8.83
2023-01-23T16:40:21.571Z,9.30
2023-01-23T16:42:49.878Z,10.20
2023-01-23T16:45:26.968Z,10.43
2023-01-23T16:47:54.278Z,10.07
2023-01-23T16:50:25.992Z,10.03
2023-01-23T16:53:02.412Z,10.33
2023-01-23T16:55:36.489Z,9.53
2023-01-23T16:58:06.509Z,9.87
2023-01-23T17:00:35.437Z,9.50
2023-01-23T17:03:06.887Z,9.93
2023-01-23T17:05:33.683Z,10.00
2023-01-23T17:08:00.302Z,10.30
2023-01-23T17:10:37.986Z,9.97
2023-01-23T17:13:10.939Z,10.90
2023-01-23T17:15:37.647Z,10.73
2023-01-23T17:18:04.526Z,10.73
2023-01-23T17:20:31.903Z,10.93
2023-01-23T17:22:58.666Z,10.30
2023-01-23T17:25:26.609Z,11.10
2023-01-23T17:28:11.114Z,10.57
2023-01-23T17:30:40.293Z,10.67
2023-01-23T17:33:18.312Z,10.60
2023-01-23T17:35:46.677Z,10.37
2023-01-23T17:38:24.449Z,10.57
2023-01-23T17:40:52.794Z,10.37
2023-01-23T17:43:20.875Z,10.67
2023-01-23T17:45:50.802Z,11.07
2023-01-23T17:48:25.018Z,11.80
2023-01-23T17:50:51.720Z,10.73
2023-01-23T17:53:19.412Z,10.97
2023-01-23T17:55:49.079Z,11.83
2023-01-23T17:58:16.113Z,11.27
2023-01-23T18:00:44.618Z,10.73
2023-01-23T18:03:17.448Z,11.30
2023-01-23T18:05:44.198Z,11.27
2023-01-23T18:08:15.339Z,10.73
2023-01-23T18:10:45.198Z,11.87
2023-01-23T18:13:24.950Z,10.80
2023-01-23T18:16:19.998Z,10.73
2023-01-23T18:18:52.957Z,10.97
2023-01-23T18:21:20.796Z,11.47
2023-01-23T18:23:48.079Z,10.90
2023-01-23T18:26:43.831Z,11.17
2023-01-23T18:29:11.007Z,11.47
2023-01-23T18:32:03.714Z,11.20
2023-01-23T18:34:53.773Z,11.17
2023-01-23T18:37:20.402Z,11.17
2023-01-23T18:39:55.881Z,11.40
2023-01-23T18:42:40.573Z,11.10
2023-01-23T18:45:23.761Z,11.43
2023-01-23T18:47:53.961Z,11.97
2023-01-23T18:50:22.877Z,11.50
2023-01-23T18:53:35.377Z,11.20
2023-01-23T18:56:30.318Z,10.93
2023-01-23T18:59:19.199Z,11.30
2023-01-23T19:02:26.814Z,10.33
2023-01-23T19:05:13.752Z,10.20
2023-01-23T19:07:40.830Z,9.83
2023-01-23T19:10:19.038Z,10.60
2023-01-23T19:12:54.487Z,10.70
2023-01-23T19:15:21.561Z,10.00
2023-01-23T19:17:52.786Z,10.20
2023-01-23T19:20:24.750Z,9.97
2023-01-23T19:23:28.832Z,10.17
2023-01-23T19:25:55.711Z,10.97
2023-01-23T19:28:22.691Z,12.43
2023-01-23T19:30:49.863Z,11.17
2023-01-23T19:33:18.404Z,12.03
2023-01-23T19:35:46.415Z,11.93
2023-01-23T19:38:14.900Z,11.23
2023-01-23T19:40:42.455Z,11.67
2023-01-23T19:43:17.281Z,12.17
2023-01-23T19:45:47.379Z,11.43
2023-01-23T19:48:14.418Z,11.33
2023-01-23T19:50:41.183Z,11.10
2023-01-23T19:53:09.884Z,11.50
2023-01-23T19:55:39.637Z,12.00
2023-01-23T19:58:06.714Z,12.70
2023-01-23T20:00:35.886Z,11.77
2023-01-23T20:03:02.849Z,11.33
2023-01-23T20:05:29.592Z,12.30
2023-01-23T20:07:56.429Z,11.77
2023-01-23T20:10:23.325Z,11.70
2023-01-23T20:12:55.225Z,11.43
2023-01-23T20:15:24.151Z,11.73
2023-01-23T20:17:52.524Z,12.60
2023-01-23T20:20:19.761Z,12.00
2023-01-23T20:22:46.607Z,12.00
2023-01-23T20:25:15.737Z,12.00
2023-01-23T20:27:43.033Z,11.20
2023-01-23T20:30:14.581Z,11.53
2023-01-23T20:32:41.425Z,12.27
2023-01-23T20:35:08.505Z,11.80
2023-01-23T20:37:35.302Z,12.67
2023-01-23T20:40:02.033Z,10.53
2023-01-23T20:42:28.750Z,11.20
2023-01-23T20:44:55.421Z,11.63
2023-01-23T20:47:22.370Z,10.93
2023-01-23T20:49:49.389Z,11.53
2023-01-23T20:52:34.601Z,11.10
2023-01-23T20:55:01.236Z,11.33
2023-01-23T20:57:48.168Z,11.70
2023-01-23T21:00:15.509Z,11.23
2023-01-23T21:02:42.231Z,10.63
2023-01-23T21:05:09.136Z,10.80
2023-01-23T21:07:35.892Z,10.80
2023-01-23T21:10:02.799Z,11.57
2023-01-23T21:12:29.531Z,11.77
2023-01-23T21:14:56.775Z,11.60
2023-01-23T21:17:23.510Z,11.47
2023-01-23T21:19:50.692Z,11.33
2023-01-23T21:22:17.444Z,11.47
2023-01-23T21:24:44.973Z,11.00
2023-01-23T21:27:13.884Z,10.93
2023-01-23T21:29:41.253Z,11.50
2023-01-23T21:32:08.054Z,10.97
2023-01-23T21:34:34.821Z,11.57
2023-01-23T21:37:01.661Z,10.33
2023-01-23T21:39:28.318Z,9.67
2023-01-23T21:41:55.024Z,10.07
2023-01-23T21:44:21.669Z,10.30
2023-01-23T21:46:49.130Z,10.93
2023-01-23T21:49:15.839Z,10.40
2023-01-23T21:51:42.696Z,10.40
2023-01-23T21:54:09.533Z,10.50
2023-01-23T21:56:36.364Z,10.93
2023-01-23T21:59:03.110Z,11.27
2023-01-23T22:01:33.491Z,10.70
2023-01-23T22:04:03.442Z,11.87
2023-01-23T22:06:31.359Z,11.37
2023-01-23T22:09:00.249Z,10.93
2023-01-23T22:11:27.020Z,11.27
2023-01-23T22:13:54.022Z,10.50
2023-01-23T22:16:22.847Z,10.73
2023-01-23T22:18:55.094Z,11.80
2023-01-23T22:21:21.885Z,11.10
2023-01-23T22:23:48.529Z,11.43
2023-01-23T22:26:15.174Z,11.17
2023-01-23T22:28:42.315Z,10.27
2023-01-23T22:31:11.819Z,12.13
2023-01-23T22:33:41.185Z,11.27
2023-01-23T22:36:12.095Z,10.80
2023-01-23T22:38:38.844Z,10.67
2023-01-23T22:41:07.972Z,10.20
2023-01-23T22:43:34.932Z,11.60
2023-01-23T22:46:08.428Z,10.57
2023-01-23T22:48:35.981Z,10.77
2023-01-23T22:51:04.875Z,10.87
2023-01-23T22:53:32.175Z,10.17
2023-01-23T22:55:58.849Z,10.33
2023-01-23T22:58:25.716Z,10.87
2023-01-23T23:00:53.420Z,11.10
2023-01-23T23:03:21.175Z,11.20
2023-01-23T23:05:55.676Z,11.17
2023-01-23T23:08:22.294Z,10.03
2023-01-23T23:10:58.624Z,11.00
2023-01-23T23:13:25.319Z,10.17
2023-01-23T23:15:51.998Z,11.13
2023-01-23T23:18:18.664Z,10.10
2023-01-23T23:20:45.297Z,10.27
2023-01-23T23:23:12.048Z,10.50
2023-01-23T23:25:38.785Z,10.83
2023-01-23T23:28:05.522Z,10.23
2023-01-23T23:30:32.229Z,10.40
2023-01-23T23:32:59.091Z,10.27
2023-01-23T23:35:25.781Z,11.33
2023-01-23T23:37:52.423Z,10.13
2023-01-23T23:40:19.109Z,10.70
2023-01-23T23:42:45.784Z,10.17
2023-01-23T23:45:12.447Z,11.03
2023-01-23T23:47:39.103Z,10.60
2023-01-23T23:50:07.891Z,11.07
2023-01-23T23:52:36.056Z,9.60
2023-01-23T23:55:03.687Z,10.57
2023-01-23T23:57:30.647Z,10.50
2023-01-23T23:59:57.391Z,10.10
